createdAt,value
2018-07-22T00:00:51.102Z,26.60
2018-07-22T00:03:20.357Z,26.43
2018-07-22T00:05:49.684Z,26.20
2018-07-22T00:08:19.227Z,26.03
2018-07-22T00:10:48.580Z,26.12
2018-07-22T00:13:17.840Z,26.23
2018-07-22T00:15:47.175Z,26.17
2018-07-22T00:18:16.451Z,26.18
2018-07-22T00:20:45.891Z,26.22
2018-07-22T00:23:15.286Z,26.36
2018-07-22T00:25:44.582Z,26.30
2018-07-22T00:28:13.882Z,26.35
2018-07-22T00:30:43.355Z,26.43
2018-07-22T00:33:12.652Z,26.37
2018-07-22T00:35:42.139Z,26.44
2018-07-22T00:38:11.425Z,26.51
2018-07-22T00:40:40.762Z,26.60
2018-07-22T00:43:10.237Z,26.57
2018-07-22T00:45:39.584Z,26.56
2018-07-22T00:48:08.961Z,26.47
2018-07-22T00:50:38.257Z,26.32
2018-07-22T00:53:08.015Z,26.17
2018-07-22T00:55:37.374Z,26.16
2018-07-22T00:58:06.782Z,26.19
2018-07-22T01:00:36.080Z,26.15
2018-07-22T01:03:05.392Z,26.11
2018-07-22T01:05:34.750Z,25.99
2018-07-22T01:08:04.017Z,25.82
2018-07-22T01:10:33.570Z,25.81
2018-07-22T01:13:02.890Z,25.80
2018-07-22T01:15:32.754Z,25.80
2018-07-22T01:18:02.020Z,25.81
2018-07-22T01:20:31.340Z,25.64
2018-07-22T01:23:01.726Z,25.43
2018-07-22T01:25:31.062Z,25.51
2018-07-22T01:28:00.331Z,25.33
2018-07-22T01:30:29.755Z,25.41
2018-07-22T01:32:59.050Z,25.46
2018-07-22T01:35:28.339Z,25.53
2018-07-22T01:37:57.846Z,25.64
2018-07-22T01:40:27.128Z,25.60
2018-07-22T01:42:56.445Z,25.58
2018-07-22T01:45:25.763Z,25.37
2018-07-22T01:47:55.083Z,25.33
2018-07-22T01:50:24.528Z,25.50
2018-07-22T01:52:53.876Z,25.55
2018-07-22T01:55:23.130Z,25.61
2018-07-22T01:57:52.767Z,25.47
2018-07-22T02:00:22.532Z,25.25
2018-07-22T02:02:51.865Z,25.02
2018-07-22T02:05:21.170Z,25.01
2018-07-22T02:07:50.788Z,25.16
2018-07-22T02:10:20.123Z,24.98
2018-07-22T02:12:49.385Z,25.02
2018-07-22T02:15:18.654Z,25.06
2018-07-22T02:17:47.923Z,25.06
2018-07-22T02:20:17.204Z,24.98
2018-07-22T02:22:46.609Z,24.91
2018-07-22T02:25:15.903Z,24.86
2018-07-22T02:27:45.218Z,24.84
2018-07-22T02:30:14.567Z,24.86
2018-07-22T02:32:43.853Z,24.82
2018-07-22T02:35:13.129Z,24.88
2018-07-22T02:37:42.459Z,24.88
2018-07-22T02:40:11.757Z,24.71
2018-07-22T02:42:41.090Z,24.81
2018-07-22T02:45:10.870Z,24.69
2018-07-22T02:47:40.186Z,24.60
2018-07-22T02:50:09.543Z,24.47
2018-07-22T02:52:38.946Z,24.57
2018-07-22T02:55:08.283Z,24.57
2018-07-22T02:57:37.615Z,24.36
2018-07-22T03:00:07.530Z,24.27
2018-07-22T03:02:36.791Z,24.26
2018-07-22T03:05:06.085Z,24.17
2018-07-22T03:07:35.564Z,24.31
2018-07-22T03:10:04.893Z,24.36
2018-07-22T03:12:34.266Z,24.47
2018-07-22T03:15:03.597Z,24.52
2018-07-22T03:17:32.869Z,24.49
2018-07-22T03:20:02.193Z,24.56
2018-07-22T03:22:31.468Z,24.45
2018-07-22T03:25:00.758Z,24.37
2018-07-22T03:27:30.055Z,24.34
2018-07-22T03:30:00.126Z,24.35
2018-07-22T03:32:29.403Z,24.29
2018-07-22T03:34:58.677Z,24.03
2018-07-22T03:37:27.955Z,24.12
2018-07-22T03:39:57.257Z,24.14
2018-07-22T03:42:26.521Z,24.13
2018-07-22T03:44:55.818Z,24.17
2018-07-22T03:47:25.175Z,24.29
2018-07-22T03:49:54.474Z,24.07
2018-07-22T03:52:24.083Z,24.20
2018-07-22T03:54:53.382Z,24.12
2018-07-22T03:57:22.684Z,24.21
2018-07-22T03:59:52.031Z,24.14
2018-07-22T04:02:21.303Z,24.13
2018-07-22T04:04:50.547Z,24.09
2018-07-22T04:07:19.879Z,24.03
2018-07-22T04:09:49.249Z,24.11
2018-07-22T04:12:18.631Z,24.21
2018-07-22T04:14:48.088Z,24.14
2018-07-22T04:17:17.523Z,24.01
2018-07-22T04:19:46.831Z,24.11
2018-07-22T04:22:16.142Z,24.05
2018-07-22T04:24:45.420Z,23.94
2018-07-22T04:27:14.741Z,24.16
2018-07-22T04:29:44.131Z,23.89
2018-07-22T04:32:13.426Z,23.80
2018-07-22T04:34:42.735Z,23.87
2018-07-22T04:37:12.488Z,23.87
2018-07-22T04:39:41.761Z,23.69
2018-07-22T04:42:11.045Z,23.74
2018-07-22T04:44:40.410Z,23.65
2018-07-22T04:47:10.119Z,23.49
2018-07-22T04:49:39.386Z,23.47
2018-07-22T04:52:08.698Z,23.65
2018-07-22T04:54:38.090Z,23.66
2018-07-22T04:57:07.351Z,23.78
2018-07-22T04:59:37.408Z,23.41
2018-07-22T05:02:06.717Z,23.59
2018-07-22T05:04:36.039Z,23.45
2018-07-22T05:07:05.508Z,23.31
2018-07-22T05:09:34.857Z,23.19
2018-07-22T05:12:04.413Z,23.26
2018-07-22T05:14:33.928Z,23.35
2018-07-22T05:17:03.218Z,23.34
2018-07-22T05:19:32.558Z,23.36
2018-07-22T05:22:02.364Z,23.49
2018-07-22T05:24:31.659Z,23.60
2018-07-22T05:27:01.011Z,23.40
2018-07-22T05:29:30.375Z,23.47
2018-07-22T05:31:59.406Z,23.55
2018-07-22T05:34:28.707Z,23.46
2018-07-22T05:36:58.007Z,23.59
2018-07-22T05:39:27.310Z,23.90
2018-07-22T05:41:56.608Z,23.82
2018-07-22T05:44:26.283Z,23.74
2018-07-22T05:46:55.535Z,23.93
2018-07-22T05:49:24.849Z,24.06
2018-07-22T05:51:54.166Z,23.98
2018-07-22T05:54:23.478Z,23.52
2018-07-22T05:56:52.751Z,23.19
2018-07-22T05:59:22.190Z,23.59
2018-07-22T06:01:51.496Z,23.87
2018-07-22T06:04:20.885Z,23.74
2018-07-22T06:06:50.446Z,23.87
2018-07-22T06:09:19.767Z,23.97
2018-07-22T06:11:49.131Z,23.66
2018-07-22T06:14:18.401Z,23.81
2018-07-22T06:16:47.780Z,24.14
2018-07-22T06:19:17.085Z,24.25
2018-07-22T06:21:46.411Z,24.57
2018-07-22T06:24:15.730Z,24.38
2018-07-22T06:26:45.010Z,24.31
2018-07-22T06:29:14.730Z,24.62
2018-07-22T06:31:44.034Z,25.16
2018-07-22T06:34:13.331Z,25.06
2018-07-22T06:36:42.661Z,24.63
2018-07-22T06:39:13.696Z,24.97
2018-07-22T06:41:44.091Z,25.62
2018-07-22T06:44:13.441Z,26.10
2018-07-22T06:46:42.784Z,26.25
2018-07-22T06:49:12.373Z,26.52
2018-07-22T06:51:41.640Z,26.10
2018-07-22T06:54:10.938Z,26.40
2018-07-22T06:56:40.305Z,26.98
2018-07-22T06:59:09.559Z,27.21
2018-07-22T07:01:38.880Z,27.15
2018-07-22T07:04:08.179Z,27.13
2018-07-22T07:06:37.568Z,27.46
2018-07-22T07:09:11.242Z,27.77
2018-07-22T07:11:41.042Z,28.13
2018-07-22T07:14:11.216Z,28.04
2018-07-22T07:16:40.591Z,28.27
2018-07-22T07:19:09.894Z,28.09
2018-07-22T07:21:39.195Z,28.17
2018-07-22T07:24:08.537Z,28.47
2018-07-22T07:26:37.955Z,28.30
2018-07-22T07:29:07.318Z,28.54
2018-07-22T07:31:37.255Z,28.64
2018-07-22T07:34:06.782Z,28.89
2018-07-22T07:36:36.098Z,28.98
2018-07-22T07:39:10.067Z,28.97
2018-07-22T07:41:39.453Z,29.07
2018-07-22T07:44:09.115Z,29.17
2018-07-22T07:46:38.824Z,28.88
2018-07-22T07:49:08.179Z,29.29
2018-07-22T07:51:37.488Z,29.55
2018-07-22T07:54:07.108Z,29.61
2018-07-22T07:56:36.504Z,29.42
2018-07-22T07:59:06.143Z,29.37
2018-07-22T08:01:35.448Z,29.35
2018-07-22T08:04:04.805Z,29.64
2018-07-22T08:06:34.275Z,29.66
2018-07-22T08:09:04.198Z,29.87
2018-07-22T08:11:33.515Z,29.54
2018-07-22T08:14:02.830Z,29.70
2018-07-22T08:16:32.172Z,29.98
2018-07-22T08:19:01.508Z,30.32
2018-07-22T08:21:30.977Z,30.19
2018-07-22T08:24:00.267Z,30.47
2018-07-22T08:26:29.658Z,30.98
2018-07-22T08:29:36.966Z,31.24
2018-07-22T08:32:07.258Z,31.47
2018-07-22T08:34:36.690Z,31.54
2018-07-22T08:37:06.028Z,31.56
2018-07-22T08:39:35.351Z,31.64
2018-07-22T08:42:04.726Z,31.70
2018-07-22T08:44:34.254Z,31.72
2018-07-22T08:47:03.577Z,31.20
2018-07-22T08:49:35.993Z,31.73
2018-07-22T08:52:05.585Z,31.98
2018-07-22T08:54:34.905Z,31.56
2018-07-22T08:57:04.216Z,31.83
2018-07-22T08:59:33.314Z,32.26
2018-07-22T09:02:05.892Z,32.61
2018-07-22T09:04:35.277Z,31.88
2018-07-22T09:07:04.859Z,32.01
2018-07-22T09:09:34.780Z,31.25
2018-07-22T09:12:04.576Z,31.61
2018-07-22T09:14:33.869Z,32.50
2018-07-22T09:17:03.340Z,32.81
2018-07-22T09:19:34.394Z,33.11
2018-07-22T09:22:03.735Z,33.62
2018-07-22T09:24:33.092Z,33.59
2018-07-22T09:27:02.499Z,33.75
2018-07-22T09:29:31.814Z,34.10
2018-07-22T09:32:01.206Z,34.39
2018-07-22T09:34:30.915Z,34.49
2018-07-22T09:37:00.251Z,34.92
2018-07-22T09:39:29.523Z,34.47
2018-07-22T09:41:58.883Z,34.45
2018-07-22T09:44:28.223Z,34.50
2018-07-22T09:46:57.508Z,33.95
2018-07-22T09:49:26.909Z,34.13
2018-07-22T09:51:56.251Z,34.38
2018-07-22T09:54:27.166Z,34.69
2018-07-22T09:56:56.709Z,35.02
2018-07-22T09:59:25.979Z,35.09
2018-07-22T10:01:55.323Z,35.39
2018-07-22T10:04:24.670Z,35.73
2018-07-22T10:06:53.973Z,36.16
2018-07-22T10:09:23.347Z,35.83
2018-07-22T10:11:52.726Z,36.13
2018-07-22T10:14:22.126Z,36.26
2018-07-22T10:16:51.448Z,35.91
2018-07-22T10:19:21.283Z,36.22
2018-07-22T10:21:50.560Z,36.35
2018-07-22T10:24:19.912Z,36.47
2018-07-22T10:26:49.281Z,36.55
2018-07-22T10:29:18.571Z,36.36
2018-07-22T10:31:47.895Z,36.59
2018-07-22T10:34:17.220Z,36.93
2018-07-22T10:36:46.520Z,36.92
2018-07-22T10:39:15.839Z,36.69
2018-07-22T10:41:45.283Z,36.83
2018-07-22T10:44:14.595Z,36.95
2018-07-22T10:46:43.903Z,36.85
2018-07-22T10:49:13.235Z,36.78
2018-07-22T10:51:42.482Z,37.41
2018-07-22T10:54:11.825Z,37.40
2018-07-22T10:56:41.164Z,37.40
2018-07-22T10:59:10.484Z,37.29
2018-07-22T11:01:39.766Z,37.38
2018-07-22T11:04:09.172Z,37.50
2018-07-22T11:06:38.470Z,37.77
2018-07-22T11:09:09.679Z,37.83
2018-07-22T11:11:39.115Z,37.93
2018-07-22T11:14:08.587Z,38.25
2018-07-22T11:16:37.895Z,38.07
2018-07-22T11:19:07.008Z,37.51
2018-07-22T11:21:36.310Z,37.58
2018-07-22T11:24:05.721Z,37.33
2018-07-22T11:26:35.288Z,37.77
2018-07-22T11:29:04.675Z,37.78
2018-07-22T11:31:34.080Z,37.72
2018-07-22T11:34:03.451Z,37.27
2018-07-22T11:36:32.776Z,37.16
2018-07-22T11:39:02.087Z,37.26
2018-07-22T11:41:31.523Z,37.25
2018-07-22T11:44:00.874Z,37.38
2018-07-22T11:46:30.188Z,37.30
2018-07-22T11:48:59.635Z,37.17
2018-07-22T11:51:28.732Z,36.96
2018-07-22T11:53:57.853Z,36.74
2018-07-22T11:56:28.088Z,36.60
2018-07-22T11:58:57.380Z,36.54
2018-07-22T12:01:26.822Z,36.51
2018-07-22T12:03:56.132Z,37.08
2018-07-22T12:06:25.754Z,37.28
2018-07-22T12:08:55.045Z,37.56
2018-07-22T12:11:24.629Z,37.44
2018-07-22T12:13:53.947Z,37.33
2018-07-22T12:16:23.287Z,36.90
2018-07-22T12:18:52.728Z,36.97
2018-07-22T12:21:22.036Z,36.98
2018-07-22T12:23:51.285Z,36.98
2018-07-22T12:26:20.415Z,36.81
2018-07-22T12:28:49.802Z,36.94
2018-07-22T12:31:19.179Z,36.71
2018-07-22T12:33:48.871Z,37.09
2018-07-22T12:36:18.259Z,37.18
2018-07-22T12:38:47.610Z,37.35
2018-07-22T12:41:16.939Z,37.32
2018-07-22T12:43:46.230Z,37.58
2018-07-22T12:46:15.511Z,37.30
2018-07-22T12:48:44.832Z,37.06
2018-07-22T12:51:14.165Z,36.99
2018-07-22T12:53:43.542Z,37.23
2018-07-22T12:56:12.955Z,36.56
2018-07-22T12:58:42.278Z,35.93
2018-07-22T13:01:11.599Z,35.80
2018-07-22T13:03:40.947Z,35.76
2018-07-22T13:06:10.247Z,36.37
2018-07-22T13:08:39.587Z,36.34
2018-07-22T13:11:08.949Z,36.07
2018-07-22T13:13:38.300Z,36.04
2018-07-22T13:16:07.854Z,36.52
2018-07-22T13:18:37.462Z,36.32
2018-07-22T13:21:06.860Z,36.03
2018-07-22T13:23:36.094Z,35.71
2018-07-22T13:26:05.459Z,35.96
2018-07-22T13:28:34.495Z,35.75
2018-07-22T13:31:03.808Z,36.03
2018-07-22T13:33:33.191Z,35.99
2018-07-22T13:36:02.484Z,35.85
2018-07-22T13:38:31.891Z,35.43
2018-07-22T13:41:01.398Z,35.42
2018-07-22T13:43:30.756Z,35.66
2018-07-22T13:46:00.071Z,35.69
2018-07-22T13:48:29.467Z,35.90
2018-07-22T13:50:58.751Z,36.18
2018-07-22T13:53:28.126Z,36.33
2018-07-22T13:55:57.488Z,36.29
2018-07-22T13:58:26.807Z,36.32
2018-07-22T14:00:56.094Z,35.69
2018-07-22T14:03:25.514Z,35.46
2018-07-22T14:05:54.875Z,35.38
2018-07-22T14:08:24.189Z,35.34
2018-07-22T14:10:53.311Z,35.43
2018-07-22T14:13:22.624Z,34.91
2018-07-22T14:15:51.926Z,35.12
2018-07-22T14:18:21.227Z,35.22
2018-07-22T14:20:50.567Z,34.45
2018-07-22T14:23:19.863Z,34.32
2018-07-22T14:25:49.689Z,34.12
2018-07-22T14:28:19.019Z,34.26
2018-07-22T14:30:48.340Z,34.28
2018-07-22T14:33:17.764Z,34.18
2018-07-22T14:35:47.064Z,34.10
2018-07-22T14:38:16.408Z,34.12
2018-07-22T14:40:46.430Z,34.04
2018-07-22T14:43:15.706Z,33.91
2018-07-22T14:45:45.097Z,33.85
2018-07-22T14:48:14.495Z,33.84
2018-07-22T14:50:43.777Z,33.88
2018-07-22T14:53:13.070Z,33.48
2018-07-22T14:55:42.529Z,33.38
2018-07-22T14:58:11.785Z,33.23
2018-07-22T15:00:41.172Z,33.48
2018-07-22T15:03:10.482Z,33.61
2018-07-22T15:05:39.767Z,33.59
2018-07-22T15:08:09.065Z,33.60
2018-07-22T15:10:38.765Z,33.96
2018-07-22T15:13:08.103Z,34.09
2018-07-22T15:15:37.417Z,33.49
2018-07-22T15:18:06.758Z,33.63
2018-07-22T15:20:36.058Z,33.50
2018-07-22T15:23:05.453Z,33.61
2018-07-22T15:25:34.792Z,33.30
2018-07-22T15:28:04.231Z,33.26
2018-07-22T15:30:33.531Z,33.38
2018-07-22T15:33:03.310Z,33.58
2018-07-22T15:35:32.600Z,33.50
2018-07-22T15:38:02.004Z,33.42
2018-07-22T15:40:31.327Z,33.38
2018-07-22T15:43:02.493Z,33.29
2018-07-22T15:45:31.842Z,33.16
2018-07-22T15:48:01.139Z,32.80
2018-07-22T15:50:30.492Z,32.67
2018-07-22T15:53:00.355Z,33.00
2018-07-22T15:55:29.813Z,33.08
2018-07-22T15:57:58.980Z,32.76
2018-07-22T16:00:28.290Z,32.51
2018-07-22T16:02:57.560Z,32.63
2018-07-22T16:05:26.891Z,32.49
2018-07-22T16:07:56.213Z,32.44
2018-07-22T16:10:25.490Z,32.21
2018-07-22T16:12:55.054Z,32.15
2018-07-22T16:15:24.683Z,31.74
2018-07-22T16:17:54.048Z,31.31
2018-07-22T16:20:23.458Z,31.39
2018-07-22T16:22:52.825Z,31.10
2018-07-22T16:25:22.288Z,31.04
2018-07-22T16:27:51.618Z,31.03
2018-07-22T16:30:20.894Z,30.56
2018-07-22T16:32:50.250Z,30.48
2018-07-22T16:35:19.536Z,30.34
2018-07-22T16:37:48.919Z,30.52
2018-07-22T16:40:17.970Z,30.31
2018-07-22T16:42:47.308Z,30.31
2018-07-22T16:45:16.677Z,30.63
2018-07-22T16:47:45.967Z,30.57
2018-07-22T16:50:15.337Z,30.09
2018-07-22T16:52:44.687Z,30.24
2018-07-22T16:55:14.022Z,30.22
2018-07-22T16:57:43.057Z,30.29
2018-07-22T17:00:12.579Z,30.27
2018-07-22T17:02:41.892Z,30.21
2018-07-22T17:05:11.268Z,30.17
2018-07-22T17:07:40.569Z,30.23
2018-07-22T17:10:09.894Z,30.23
2018-07-22T17:12:39.190Z,30.10
2018-07-22T17:15:08.523Z,30.07
2018-07-22T17:17:37.794Z,30.29
2018-07-22T17:20:07.106Z,30.26
2018-07-22T17:22:36.840Z,30.16
2018-07-22T17:25:06.567Z,29.98
2018-07-22T17:27:35.903Z,29.93
2018-07-22T17:30:05.716Z,29.57
2018-07-22T17:32:35.055Z,29.64
2018-07-22T17:35:04.418Z,29.61
2018-07-22T17:37:33.790Z,29.56
2018-07-22T17:40:03.115Z,29.61
2018-07-22T17:42:33.528Z,29.47
2018-07-22T17:45:03.247Z,29.32
2018-07-22T17:47:32.578Z,29.37
2018-07-22T17:50:01.955Z,29.36
2018-07-22T17:52:31.330Z,29.27
2018-07-22T17:55:00.617Z,29.34
2018-07-22T17:57:29.961Z,29.17
2018-07-22T17:59:59.368Z,29.01
2018-07-22T18:02:28.648Z,28.62
2018-07-22T18:04:57.713Z,28.67
2018-07-22T18:07:27.351Z,28.82
2018-07-22T18:09:56.723Z,28.84
2018-07-22T18:12:26.069Z,28.65
2018-07-22T18:14:55.482Z,28.67
2018-07-22T18:17:24.872Z,28.54
2018-07-22T18:19:54.206Z,28.44
2018-07-22T18:22:23.622Z,28.29
2018-07-22T18:24:52.990Z,28.21
2018-07-22T18:27:22.349Z,28.13
2018-07-22T18:29:51.957Z,27.95
2018-07-22T18:32:21.276Z,27.95
2018-07-22T18:34:50.602Z,27.79
2018-07-22T18:37:20.265Z,27.80
2018-07-22T18:39:49.660Z,27.81
2018-07-22T18:42:19.040Z,27.73
2018-07-22T18:44:48.373Z,27.45
2018-07-22T18:47:17.753Z,27.49
2018-07-22T18:49:47.371Z,27.46
2018-07-22T18:52:17.395Z,27.51
2018-07-22T18:54:46.727Z,27.60
2018-07-22T18:57:16.334Z,27.52
2018-07-22T18:59:46.073Z,27.37
2018-07-22T19:02:15.869Z,27.48
2018-07-22T19:04:45.498Z,27.47
2018-07-22T19:07:15.209Z,27.42
2018-07-22T19:09:44.658Z,27.34
2018-07-22T19:12:14.084Z,27.17
2018-07-22T19:14:43.844Z,27.08
2018-07-22T19:17:13.178Z,26.86
2018-07-22T19:19:42.696Z,27.02
2018-07-22T19:22:12.064Z,26.98
2018-07-22T19:24:41.809Z,26.90
2018-07-22T19:27:11.126Z,26.83
2018-07-22T19:29:40.818Z,26.38
2018-07-22T19:32:10.544Z,26.32
2018-07-22T19:34:39.848Z,26.27
2018-07-22T19:37:09.325Z,26.24
2018-07-22T19:39:38.694Z,26.33
2018-07-22T19:42:08.010Z,26.17
2018-07-22T19:44:37.492Z,26.22
2018-07-22T19:47:06.859Z,26.19
2018-07-22T19:49:35.982Z,26.01
2018-07-22T19:52:05.291Z,25.91
2018-07-22T19:54:34.661Z,25.90
2018-07-22T19:57:04.203Z,25.92
2018-07-22T19:59:33.687Z,25.80
2018-07-22T20:02:03.393Z,25.59
2018-07-22T20:04:32.753Z,25.69
2018-07-22T20:07:02.153Z,25.68
2018-07-22T20:09:31.583Z,25.58
2018-07-22T20:12:00.935Z,25.48
2018-07-22T20:14:30.401Z,25.42
2018-07-22T20:16:59.744Z,25.37
2018-07-22T20:19:29.076Z,25.28
2018-07-22T20:21:58.650Z,25.26
2018-07-22T20:24:28.100Z,25.15
2018-07-22T20:26:57.383Z,25.10
2018-07-22T20:29:27.071Z,25.06
2018-07-22T20:31:56.438Z,24.79
2018-07-22T20:34:25.784Z,24.72
2018-07-22T20:36:55.171Z,24.65
2018-07-22T20:39:24.506Z,24.68
2018-07-22T20:41:53.888Z,24.64
2018-07-22T20:44:23.515Z,24.69
2018-07-22T20:46:53.096Z,24.67
2018-07-22T20:49:22.399Z,24.71
2018-07-22T20:51:51.764Z,24.54
2018-07-22T20:54:20.816Z,24.49
2018-07-22T20:56:50.166Z,24.32
2018-07-22T20:59:19.598Z,24.39
2018-07-22T21:01:48.952Z,24.45
2018-07-22T21:04:18.281Z,24.41
2018-07-22T21:06:47.753Z,24.27
2018-07-22T21:09:17.088Z,24.13
2018-07-22T21:13:01.603Z,24.12
2018-07-22T21:15:30.964Z,23.98
2018-07-22T21:18:00.334Z,24.06
2018-07-22T21:20:29.713Z,24.16
2018-07-22T21:22:59.008Z,24.04
2018-07-22T21:25:28.305Z,24.05
2018-07-22T21:27:58.050Z,23.91
2018-07-22T21:30:27.379Z,23.90
2018-07-22T21:32:56.734Z,23.92
2018-07-22T21:35:26.043Z,23.88
2018-07-22T21:37:55.335Z,24.01
2018-07-22T21:40:24.680Z,23.87
2018-07-22T21:42:54.012Z,23.83
2018-07-22T21:45:23.336Z,23.81
2018-07-22T21:47:53.260Z,23.77
2018-07-22T21:50:23.018Z,23.83
2018-07-22T21:52:52.306Z,23.64
2018-07-22T21:55:21.659Z,23.63
2018-07-22T21:57:50.982Z,23.48
2018-07-22T22:00:32.485Z,23.39
2018-07-22T22:03:03.181Z,23.36
2018-07-22T22:05:32.653Z,23.44
2018-07-22T22:08:01.982Z,23.17
2018-07-22T22:10:31.745Z,23.30
2018-07-22T22:13:01.389Z,23.46
2018-07-22T22:15:31.799Z,23.31
2018-07-22T22:18:02.330Z,23.36
2018-07-22T22:20:32.119Z,23.40
2018-07-22T22:23:01.449Z,23.43
2018-07-22T22:25:30.749Z,23.29
2018-07-22T22:28:00.040Z,23.38
2018-07-22T22:30:29.318Z,23.38
2018-07-22T22:32:59.432Z,23.43
2018-07-22T22:35:28.744Z,23.35
2018-07-22T22:37:58.079Z,23.35
2018-07-22T22:40:27.459Z,23.35
2018-07-22T22:42:56.830Z,23.20
2018-07-22T22:45:26.144Z,23.08
2018-07-22T22:47:55.605Z,22.85
2018-07-22T22:50:24.661Z,22.93
2018-07-22T22:52:54.039Z,22.92
2018-07-22T22:55:23.607Z,22.78
2018-07-22T22:58:09.815Z,22.82
2018-07-22T23:00:39.218Z,22.88
2018-07-22T23:03:08.966Z,22.68
2018-07-22T23:05:38.524Z,22.83
2018-07-22T23:08:07.913Z,22.93
2018-07-22T23:10:37.263Z,22.95
2018-07-22T23:13:06.588Z,22.63
2018-07-22T23:15:36.198Z,22.66
2018-07-22T23:18:05.562Z,22.65
2018-07-22T23:20:34.841Z,22.67
2018-07-22T23:23:04.176Z,22.56
2018-07-22T23:25:33.474Z,22.27
2018-07-22T23:28:02.706Z,22.33
2018-07-22T23:30:32.062Z,22.23
2018-07-22T23:33:01.383Z,22.11
2018-07-22T23:35:30.747Z,22.34
2018-07-22T23:38:00.278Z,22.34
2018-07-22T23:40:29.604Z,22.10
2018-07-22T23:42:59.168Z,22.16
2018-07-22T23:45:28.781Z,22.23
2018-07-22T23:47:58.828Z,22.06
2018-07-22T23:50:28.141Z,22.03
2018-07-22T23:52:57.626Z,21.97
2018-07-22T23:55:27.525Z,21.85
2018-07-22T23:57:56.825Z,21.85
